Skip Navigation

Christman Field Latest Observations

Switch to metric unitsOther observation timesWeekly graphs

Date Time
MST
Temp
°F
RH
%
DewPt
°F
Wind
mph
Dir
°
Gust
mph
Dir
°
Press
in Hg
Solar
W/m^2
Prec
in
2017-09-22 00:55 50.5 46.3 30.6 1.0 2.3 24.583 0.0 0.00
2017-09-22 00:50 49.6 48.1 30.8 2.3 2.7 24.582 0.0 0.00
2017-09-22 00:45 49.5 49.9 31.6 3.3 4.0 24.580 0.0 0.00
2017-09-22 00:40 51.8 46.3 31.9 3.4 6.0 24.579 0.0 0.00
2017-09-22 00:35 53.6 41.4 30.8 0.9 2.6 24.573 0.0 0.00
2017-09-22 00:30 53.7 41.5 30.9 3.9 6.8 24.573 0.0 0.00
2017-09-22 00:25 52.6 41.1 29.7 5.0 6.9 24.570 0.0 0.00
2017-09-22 00:20 52.5 45.3 32.0 6.2 6.9 24.566 0.0 0.00
2017-09-22 00:15 54.8 37.0 29.1 4.9 6.8 24.564 0.0 0.00
2017-09-22 00:10 55.2 38.1 30.1 3.4 4.6 24.560 0.0 0.00
2017-09-22 00:05 54.1 38.6 29.4 4.1 5.0 24.556 0.0 0.00
2017-09-22 00:00 52.3 43.5 30.8 3.7 5.0 24.556 0.0 0.00
2017-09-21 23:55 52.3 46.0 32.1 1.6 3.8 24.554 0.0 0.00
2017-09-21 23:50 53.0 44.9 32.2 5.5 7.2 24.554 0.0 0.00
2017-09-21 23:45 52.2 41.5 29.5 4.0 5.8 24.551 0.0 0.00
2017-09-21 23:40 53.0 43.9 31.6 1.7 4.6 24.550 0.0 0.00
2017-09-21 23:35 53.6 38.7 29.1 1.7 4.5 24.548 0.0 0.00
2017-09-21 23:30 55.1 40.4 31.4 0.5 1.8 24.547 0.0 0.00
2017-09-21 23:25 53.7 39.0 29.4 0.1 1.6 24.547 0.0 0.00
2017-09-21 23:20 54.1 38.6 29.5 0.0 0.0 24.547 0.0 0.00
2017-09-21 23:15 53.6 37.8 28.5 0.1 0.9 24.546 0.0 0.00
2017-09-21 23:10 53.5 39.3 29.3 0.0 0.0 24.545 0.0 0.00
2017-09-21 23:05 53.5 40.2 29.9 0.0 0.0 24.547 0.0 0.00
2017-09-21 23:00 52.7 39.0 28.4 0.0 0.0 24.547 0.0 0.00
2017-09-21 22:55 53.3 39.9 29.5 0.5 1.4 24.546 0.0 0.00
2017-09-21 22:50 56.7 37.6 31.2 2.1 7.0 24.544 0.0 0.00
2017-09-21 22:45 59.3 30.5 28.3 1.6 3.0 24.541 0.0 0.00
2017-09-21 22:40 58.1 31.4 27.9 0.6 3.4 24.540 0.0 0.00
2017-09-21 22:35 58.9 32.0 29.2 1.8 4.7 24.540 0.0 0.00
2017-09-21 22:30 58.0 30.2 26.9 1.9 3.6 24.539 0.0 0.00